Accueil
METAR-TAF:

METAR-TAF

Aéroports :

Bojnourd, Iran

latitude: 37-28N, longitude: 057-20E, altitude: 1074 m

Observation

Le bulletin a été fait il y a 33 minutes, à 16:00 UTC
Vent 12 kt de nord-ouest
Température -2°C
Humidité 69%
Pression 1025 hPa
Visibilité: 8000 m
Quelques nuages à une hauteur de 300 ft
Nuages épars à une hauteur de 2000 ft
Nuages fragmentés à une hauteur de 6000 ft
neige faible,

METAR: OIMN 291600Z 32012KT 8000 -SN FEW003 SCT020 BKN060 M02/M07 Q1025

Heure: 20:03 (16:33 UTC)


TAF: absent

Observations et prévisions météorologiques de plus de 4000 aéroports (messages METAR et TAF).

Les stations disponibles sont représentées par des disques jaunes et rouges sur la carte.

Passer la souris dessus pour voir le nom de la station.

Cliquer dessus pour voir les observations et prévisions météorologiques.

Pour changer de carte: cliquez sur les boutons verts avec une croix noire pour zoomer, sur le bouton vert avec un tiret pour effectuer un zoom arrière, ou sur les flèches vertes pour les cartes adjacentes.


METAR-TAF: